Causeway — 5BVB3 — position and weather

sailwx.info

Track history (hours):
 
Tides and Currents Weather Stations Pressure Air Temp Water Temp Dewpoint Dewpoint Depression Visibility Wind Speed Wind Dir Waves Ship Positions

Causeway

Last reported at 2017-Dec-11 05:30 UTC. Time now 2017-Dec-11 05:56 UTC.
Position N 52°52' E 004°33'.

Length 91 m; draft 6.8 m.

Type: Dredging. MMSI: 210523000.

Date/timePositionNaut miles runAvg speedWind from/ knotsBaromVisibWave heightAir tempDewpointWater temp
2017-Dec-11 05:30N 52°52' E 004°33'1 1.5
2017-Dec-11 05:00N 52°51' E 004°33'4 8.4
2017-Dec-11 04:31N 52°50' E 004°40'3 5.7
2017-Dec-11 04:00N 52°51' E 004°35'2 3.8
2017-Dec-11 03:30N 52°52' E 004°33'1 1.4
2017-Dec-11 03:00N 52°52' E 004°33'4 8.3
2017-Dec-11 02:30N 52°50' E 004°40'2 4.3
2017-Dec-11 02:00N 52°50' E 004°36'2 4.0
2017-Dec-11 01:30N 52°51' E 004°33'0 0.6
2017-Dec-11 01:00N 52°51' E 004°33'2 3.8
2017-Dec-11 00:30N 52°50' E 004°36'2 4.5
2017-Dec-11 00:01N 52°50' E 004°40'4 8.0
2017-Dec-10 23:30N 52°51' E 004°33'1 1.6
2017-Dec-10 23:00N 52°52' E 004°33'1 1.4
2017-Dec-10 22:31N 52°52' E 004°33'5 9.1
2017-Dec-10 22:01N 52°50' E 004°40'4 8.4
2017-Dec-10 21:31N 52°51' E 004°33'1 1.8
2017-Dec-10 21:00N 52°52' E 004°33'1 2.1
2017-Dec-10 20:30N 52°52' E 004°35'3 6.6
2017-Dec-10 20:01N 52°50' E 004°40'4 7.9
2017-Dec-10 19:30N 52°51' E 004°33'1 1.5
2017-Dec-10 19:00N 52°52' E 004°33'2 3.2
2017-Dec-10 18:30N 52°51' E 004°36'2 3.3
2017-Dec-10 18:00N 52°51' E 004°38'3 6.5
2017-Dec-10 17:30N 52°52' E 004°33'1 1.6
2017-Dec-10 17:00N 52°51' E 004°33'2 4.1
2017-Dec-10 16:30N 52°51' E 004°36'1 2.4
2017-Dec-10 16:00N 52°51' E 004°38'3 6.2
2017-Dec-10 15:30N 52°52' E 004°33'1 1.5
2017-Dec-10 15:01N 52°51' E 004°33'2 4.1
2017-Dec-10 14:30N 52°51' E 004°37'2 3.3
2017-Dec-10 14:00N 52°50' E 004°39'4 7.5
2017-Dec-10 13:30N 52°52' E 004°33'0 0.2
2017-Dec-10 13:00N 52°52' E 004°33'1 3.0
2017-Dec-10 12:30N 52°51' E 004°35'3 5.9
2017-Dec-10 12:01N 52°50' E 004°40'4 8.1
2017-Dec-10 11:30N 52°51' E 004°33'1 2.1
2017-Dec-10 11:00N 52°52' E 004°33'2 3.6
2017-Dec-10 10:30N 52°51' E 004°36'3 5.3
2017-Dec-10 10:00N 52°50' E 004°40'3 5.2
2017-Dec-10 09:30N 52°52' E 004°37'2 4.0
2017-Dec-10 09:00N 52°52' E 004°33'1 2.2
2017-Dec-10 08:31N 52°51' E 004°33'1 1.0
2017-Dec-10 08:00N 52°51' E 004°33'1 1.4
2017-Dec-10 07:31N 52°52' E 004°34'4 7.9
2017-Dec-10 07:01N 52°50' E 004°40'3 5.8
2017-Dec-10 06:30N 52°51' E 004°36'1 2.9
2017-Dec-10 06:00N 52°51' E 004°33'0 0.6
2017-Dec-10 05:30N 52°51' E 004°33'1 2.2
2017-Dec-10 05:00N 52°50' E 004°33'510.9
2017-Dec-10 04:30N 52°45' E 004°32'510.8
2017-Dec-10 04:00N 52°39' E 004°30'510.4
2017-Dec-10 03:30N 52°34' E 004°29'510.4
2017-Dec-10 03:00N 52°29' E 004°26'510.5
2017-Dec-10 02:30N 52°24' E 004°22'510.5
2017-Dec-10 02:00N 52°20' E 004°18'510.6
2017-Dec-10 01:30N 52°15' E 004°14'510.7
2017-Dec-10 01:00N 52°11' E 004°09'510.7
2017-Dec-10 00:30N 52°07' E 004°04'4 7.2
2017-Dec-10 00:00N 52°03' E 004°01'510.0
2017-Dec-09 23:31N 51°59' E 004°05'1 2.3
2017-Dec-09 23:01N 51°58' E 004°05'0 0.2
2017-Dec-09 22:30N 51°58' E 004°05'3 5.3
2017-Dec-09 22:00N 51°60' E 004°02'4 8.1
2017-Dec-09 21:31N 52°04' E 004°01'5 9.6
2017-Dec-09 21:00N 51°59' E 004°04'2 3.8
2017-Dec-09 20:31N 51°58' E 004°05'0 0.2
2017-Dec-09 20:00N 51°58' E 004°05'3 5.6
2017-Dec-09 19:30N 51°60' E 004°02'4 7.5
2017-Dec-09 19:00N 52°03' E 004°01'5 9.8
2017-Dec-09 18:30N 51°59' E 004°04'1 2.4
2017-Dec-09 18:00N 51°58' E 004°05'0 0.4
2017-Dec-09 17:31N 51°58' E 004°05'4 8.0
2017-Dec-09 17:00N 52°01' E 004°01'2 4.2
2017-Dec-09 16:30N 52°03' E 004°02'5 9.2
2017-Dec-09 16:00N 51°59' E 004°05'1 2.3
2017-Dec-09 15:31N 51°58' E 004°05'0 0.4
2017-Dec-09 15:00N 51°58' E 004°05'5 9.8
2017-Dec-09 14:30N 52°01' E 003°60'2 3.4
2017-Dec-09 14:00N 52°03' E 004°01'4 8.1
2017-Dec-09 13:30N 51°59' E 004°04'2 3.9
2017-Dec-09 13:00N 51°57' E 004°05'0 0.2
2017-Dec-09 12:30N 51°57' E 004°05'2 3.5
2017-Dec-09 12:00N 51°56' E 004°03'0 0.0
2017-Dec-09 11:30N 51°56' E 004°03'0 0.0
2017-Dec-09 11:00N 51°56' E 004°03'0 0.0
2017-Dec-09 10:30N 51°56' E 004°03'0 0.1
2017-Dec-09 10:00N 51°56' E 004°03'3 6.1
2017-Dec-09 09:30N 51°58' E 004°06'5 9.2
2017-Dec-09 09:00N 51°56' E 004°13'510.5
2017-Dec-09 08:30N 51°54' E 004°20'4 7.4
2017-Dec-09 08:00N 51°54' E 004°26'1 1.0
2017-Dec-09 07:30N 51°53' E 004°27'0 0.5
2017-Dec-09 07:00N 51°53' E 004°27'0 0.1
2017-Dec-09 06:30N 51°53' E 004°27'0 0.3
2017-Dec-09 06:00N 51°53' E 004°27'2 4.3
2017-Dec-09 05:30N 51°54' E 004°23'510.6
2017-Dec-09 05:00N 51°55' E 004°15'611.5
2017-Dec-09 04:30N 51°58' E 004°08'3 6.6
2017-Dec-09 04:00N 51°56' E 004°04'0 0.9
2017-Dec-09 03:30N 51°56' E 004°03'0 0.0
2017-Dec-09 03:00N 51°56' E 004°03'0 0.0
2017-Dec-09 02:30N 51°56' E 004°03'0 0.0
2017-Dec-09 02:00N 51°56' E 004°03'0 0.5
2017-Dec-09 01:30N 51°56' E 004°03'2 4.6
2017-Dec-09 01:00N 51°58' E 004°02'1 2.5
2017-Dec-09 00:30N 51°59' E 003°60'0 0.0
2017-Dec-09 00:00N 51°59' E 003°60'0 0.0
2017-Dec-08 23:30N 51°59' E 003°60'0 0.0
2017-Dec-08 23:00N 51°59' E 003°60'0 0.0
2017-Dec-08 22:30N 51°59' E 003°60'0 0.0
2017-Dec-08 22:00N 51°59' E 003°60'0 0.0
2017-Dec-08 21:30N 51°59' E 003°60'0 0.0
2017-Dec-08 21:00N 51°59' E 003°60'0 0.2
2017-Dec-08 20:30N 51°59' E 004°00'3 6.4
2017-Dec-08 20:00N 51°58' E 004°05'3 6.1
2017-Dec-08 19:30N 51°57' E 004°10'4 8.1
2017-Dec-08 19:00N 51°55' E 004°15'4 8.1
2017-Dec-08 18:30N 51°54' E 004°21'3 6.5
2017-Dec-08 18:00N 51°53' E 004°27'0 0.2
2017-Dec-08 17:30N 51°53' E 004°27'0 0.5
2017-Dec-08 17:00N 51°53' E 004°27'0 0.0
2017-Dec-08 16:30N 51°53' E 004°27'0 0.9
2017-Dec-08 16:00N 51°54' E 004°26'5 9.5
2017-Dec-08 15:30N 51°54' E 004°19'611.4
2017-Dec-08 15:00N 51°57' E 004°11'510.4
2017-Dec-08 14:31N 51°59' E 004°03'5 9.3
2017-Dec-08 14:00N 52°02' E 003°57'2 5.0
2017-Dec-08 13:30N 52°03' E 004°01'2 3.4
2017-Dec-08 13:00N 52°02' E 004°01'4 7.2
2017-Dec-08 12:30N 51°59' E 004°05'611.8
2017-Dec-08 12:00N 51°56' E 004°13'510.4
2017-Dec-08 11:30N 51°54' E 004°21'3 6.8
2017-Dec-08 11:00N 51°54' E 004°26'0 0.1
2017-Dec-08 10:30N 51°54' E 004°26'0 0.1
2017-Dec-08 10:00N 51°54' E 004°26'0 0.3
2017-Dec-08 09:30N 51°54' E 004°26'1 1.3
2017-Dec-08 09:00N 51°54' E 004°25'0 0.0
2017-Dec-08 08:30N 51°54' E 004°25'4 8.0
2017-Dec-08 08:00N 51°54' E 004°19'612.4
2017-Dec-08 07:30N 51°57' E 004°10'611.9
2017-Dec-08 07:00N 51°60' E 004°02'4 8.1
2017-Dec-08 06:30N 52°04' E 004°00'2 3.5
2017-Dec-08 06:00N 52°02' E 004°02'4 8.1
2017-Dec-08 05:30N 51°59' E 004°05'1 1.8
2017-Dec-08 05:00N 51°58' E 004°05'0 0.4
2017-Dec-08 04:30N 51°58' E 004°05'4 8.7
2017-Dec-08 04:00N 52°01' E 004°01'3 6.1
2017-Dec-08 03:30N 52°04' E 004°01'2 3.1
2017-Dec-08 03:00N 52°02' E 004°01'3 6.9
2017-Dec-08 02:30N 51°59' E 004°03'2 4.2
2017-Dec-08 02:00N 51°58' E 004°05'1 1.8
2017-Dec-08 01:31N 51°57' E 004°05'2 4.2
2017-Dec-08 01:00N 51°59' E 004°04'510.2
2017-Dec-08 00:31N 52°03' E 004°00'2 3.9
2017-Dec-08 00:00N 52°02' E 004°01'4 7.9
2017-Dec-07 23:30N 51°58' E 004°05'1 2.0
2017-Dec-07 23:00N 51°57' E 004°05'0 0.7
2017-Dec-07 22:30N 51°58' E 004°05'5 9.3
2017-Dec-07 22:00N 52°01' E 004°00'2 3.8
2017-Dec-07 21:30N 52°03' E 004°02'4 8.7
2017-Dec-07 21:00N 51°59' E 004°04'1 2.9
2017-Dec-07 20:30N 51°58' E 004°05'1 1.4
2017-Dec-07 20:00N 51°58' E 004°05'510.8
2017-Dec-07 19:30N 52°03' E 004°01'3 5.6
2017-Dec-07 19:00N 52°00' E 004°02'4 7.3
2017-Dec-07 18:31N 51°57' E 004°05'1 1.7
2017-Dec-07 18:00N 51°58' E 004°05'3 6.8
2017-Dec-07 17:30N 52°00' E 004°02'3 6.1
2017-Dec-07 17:00N 52°03' E 004°01'4 7.8
2017-Dec-07 16:30N 51°60' E 004°02'3 5.9
2017-Dec-07 16:00N 51°57' E 004°05'0 0.1
2017-Dec-07 15:31N 51°57' E 004°05'0 0.3
2017-Dec-07 15:01N 51°57' E 004°05'0 0.2
2017-Dec-07 14:30N 51°57' E 004°05'1 1.0
2017-Dec-07 14:00N 51°58' E 004°04'0 0.8
2017-Dec-07 13:30N 51°58' E 004°04'2 3.7
2017-Dec-07 13:00N 51°59' E 004°02'4 8.3
2017-Dec-07 12:30N 52°03' E 004°01'3 6.9
2017-Dec-07 12:00N 52°00' E 004°02'3 5.5
2017-Dec-07 11:30N 51°58' E 004°06'0 0.3
2017-Dec-07 11:00N 51°58' E 004°05'4 7.4
2017-Dec-07 10:30N 52°01' E 004°00'3 5.1
2017-Dec-07 10:00N 52°03' E 004°01'510.4
2017-Dec-07 09:30N 51°59' E 004°06'0 0.4
2017-Dec-07 09:00N 51°58' E 004°06'1 2.9
2017-Dec-07 08:30N 51°59' E 004°04'4 8.4
2017-Dec-07 08:00N 52°03' E 004°01'3 5.5
2017-Dec-07 07:30N 52°00' E 004°02'3 5.7
2017-Dec-07 07:00N 51°58' E 004°06'0 0.8
2017-Dec-07 06:30N 51°59' E 004°05'4 8.8
2017-Dec-07 06:00N 52°02' E 004°01'1 2.8
2017-Dec-07 05:30N 52°01' E 004°01'4 7.2
2017-Dec-07 05:00N 51°58' E 004°06'0 0.7
2017-Dec-07 04:31N 51°58' E 004°05'2 4.3
2017-Dec-07 04:00N 51°59' E 004°02'4 8.8
2017-Dec-07 03:30N 52°04' E 004°01'3 6.5
2017-Dec-07 03:00N 52°00' E 004°02'3 6.1
2017-Dec-07 02:31N 51°59' E 004°06'0 0.1
2017-Dec-07 02:00N 51°58' E 004°06'3 6.9
2017-Dec-07 01:30N 52°01' E 004°01'2 4.4
2017-Dec-07 01:00N 52°03' E 004°01'510.1
2017-Dec-07 00:30N 51°58' E 004°05'1 1.1
2017-Dec-07 00:01N 51°58' E 004°06'1 1.5
2017-Dec-06 23:30N 51°59' E 004°05'5 9.7
2017-Dec-06 23:00N 52°03' E 004°01'3 6.3
2017-Dec-06 22:30N 51°60' E 004°02'2 4.7
2017-Dec-06 22:01N 51°58' E 004°06'0 0.3
2017-Dec-06 21:30N 51°59' E 004°05'5 9.7
2017-Dec-06 21:00N 52°03' E 004°01'  
2017-Dec-04 10:30N 51°56' E 004°03'0 0.0
2017-Dec-04 10:01N 51°56' E 004°03'0 0.0
2017-Dec-04 09:30N 51°56' E 004°03'0 0.0
2017-Dec-04 09:00N 51°56' E 004°03'0 0.0
2017-Dec-04 08:30N 51°56' E 004°03'0 0.0
2017-Dec-04 08:00N 51°56' E 004°03'0 0.0
2017-Dec-04 07:30N 51°56' E 004°03'2 4.1
2017-Dec-04 07:00N 51°58' E 004°05'611.1
2017-Dec-04 06:30N 52°03' E 004°01'2 5.0
2017-Dec-04 06:00N 52°00' E 004°02'3 6.0
2017-Dec-04 05:30N 51°58' E 004°06'0 0.3
2017-Dec-04 05:00N 51°58' E 004°06'4 7.0
2017-Dec-04 04:30N 52°01' E 004°02'2 3.5
2017-Dec-04 04:00N 52°02' E 004°02'5 9.6
2017-Dec-04 03:30N 51°58' E 004°05'0 0.2
2017-Dec-04 03:00N 51°58' E 004°05'1 3.0
2017-Dec-04 02:30N 51°59' E 004°03'510.2
2017-Dec-04 02:01N 52°04' E 004°01'5 9.8
2017-Dec-04 01:30N 51°59' E 004°04'1 2.8
2017-Dec-04 01:00N 51°58' E 004°06'0 0.2
2017-Dec-04 00:30N 51°58' E 004°06'5 9.2
2017-Dec-04 00:01N 52°02' E 004°01'1 2.9
2017-Dec-03 23:31N 52°01' E 004°02'3 6.7
2017-Dec-03 23:01N 51°58' E 004°06'0 0.8
2017-Dec-03 22:31N 51°58' E 004°06'3 6.5
2017-Dec-03 22:01N 52°00' E 004°02'2 3.2
2017-Dec-03 21:31N 52°02' E 004°02'4 8.6
2017-Dec-03 21:01N 51°58' E 004°06'0 0.2
2017-Dec-03 20:31N 51°58' E 004°05'4 7.4
2017-Dec-03 20:01N 52°01' E 004°01'0 0.5
2017-Dec-03 19:30N 52°01' E 004°02'4 7.5
2017-Dec-03 19:01N 51°58' E 004°05'0 0.1
2017-Dec-03 18:31N 51°58' E 004°05'4 7.4
2017-Dec-03 18:01N 52°01' E 004°01'0 0.2
2017-Dec-03 17:31N 52°01' E 004°02'4 7.3
2017-Dec-03 17:01N 51°58' E 004°06'0 0.5
2017-Dec-03 16:31N 51°58' E 004°06'0 0.1
2017-Dec-03 16:01N 51°58' E 004°06'4 8.3
2017-Dec-03 15:31N 52°02' E 004°01'1 2.2
2017-Dec-03 15:00N 52°01' E 004°02'3 6.8
2017-Dec-03 14:31N 51°58' E 004°06'0 0.7
2017-Dec-03 14:00N 51°58' E 004°05'0 0.1
2017-Dec-03 13:31N 51°58' E 004°05'5 9.1
2017-Dec-03 13:00N 52°02' E 004°01'2 3.4
2017-Dec-03 12:31N 52°01' E 004°02'2 4.1
2017-Dec-03 12:01N 51°59' E 004°04'1 1.0
2017-Dec-03 11:31N 51°59' E 004°03'2 3.8
2017-Dec-03 11:01N 52°01' E 004°02'1 2.4
2017-Dec-03 10:30N 52°02' E 004°02'3 6.3
2017-Dec-03 10:01N 51°59' E 004°03'0 0.4
2017-Dec-03 09:31N 51°59' E 004°03'2 4.5
2017-Dec-03 09:00N 52°01' E 004°02'0 0.5
2017-Dec-03 08:31N 52°01' E 004°01'3 6.0
2017-Dec-03 08:01N 51°59' E 004°04'1 1.5
2017-Dec-03 07:30N 51°59' E 004°03'1 2.9
2017-Dec-03 07:01N 51°60' E 004°01'2 4.9
2017-Dec-03 06:31N 52°02' E 004°02'4 7.8
2017-Dec-03 06:01N 51°59' E 004°04'1 1.5
2017-Dec-03 05:31N 51°59' E 004°03'3 5.1
2017-Dec-03 05:01N 52°02' E 004°01'0 0.5
2017-Dec-03 04:31N 52°02' E 004°02'3 6.0
2017-Dec-03 04:00N 51°59' E 004°04'0 0.3
2017-Dec-03 03:31N 51°59' E 004°04'1 1.5
2017-Dec-03 03:01N 51°59' E 004°03'5 9.2
2017-Dec-03 02:31N 52°04' E 004°01'5 9.0
2017-Dec-03 02:01N 51°59' E 004°03'3 5.2
2017-Dec-03 01:31N 51°58' E 004°07'0 0.1
2017-Dec-03 01:01N 51°58' E 004°07'1 2.7
2017-Dec-03 00:31N 51°57' E 004°09'0 0.5
2017-Dec-03 00:01N 51°58' E 004°08'5 9.7
2017-Dec-02 23:31N 52°00' E 004°02'4 8.8
2017-Dec-02 23:01N 52°04' E 004°01'1 1.5
2017-Dec-02 22:30N 52°04' E 003°60'1 1.3
2017-Dec-02 22:01N 52°04' E 004°00'0 1.0
2017-Dec-02 21:31N 52°04' E 003°60'510.5
2017-Dec-02 21:01N 51°59' E 003°56'510.6
2017-Dec-02 20:31N 51°56' E 003°50'610.5
2017-Dec-02 19:56N 51°52' E 003°42'610.4
2017-Dec-02 19:24N 51°48' E 003°37'510.5
2017-Dec-02 18:56N 51°44' E 003°33'5 9.7
2017-Dec-02 18:26N 51°40' E 003°38'2 3.9
2017-Dec-02 17:59N 51°41' E 003°41'2 3.4
2017-Dec-02 17:30N 51°43' E 003°41'0 0.0
2017-Dec-02 17:00N 51°43' E 003°41'3 6.0
2017-Dec-02 16:30N 51°40' E 003°42'3 6.8
2017-Dec-02 16:00N 51°40' E 003°37'4 7.8
2017-Dec-02 15:30N 51°43' E 003°32'3 5.6
2017-Dec-02 15:01N 51°46' E 003°31'0 0.3
2017-Dec-02 14:29N 51°46' E 003°31'2 3.2
2017-Dec-02 14:01N 51°45' E 003°33'6 9.9
2017-Dec-02 13:27N 51°41' E 003°38'2 1.6
2017-Dec-02 12:14N 51°42' E 003°40'3 7.4
2017-Dec-02 11:53N 51°40' E 003°42'410.7
2017-Dec-02 11:30N 51°41' E 003°36'4 8.3
2017-Dec-02 10:57N 51°45' E 003°34'2 4.5
2017-Dec-02 10:30N 51°45' E 003°31'0 0.6
2017-Dec-02 10:00N 51°46' E 003°31'3 5.1
2017-Dec-02 09:30N 51°43' E 003°33'5 9.6
2017-Dec-02 08:58N 51°40' E 003°39'3 5.8
2017-Dec-02 08:30N 51°43' E 003°41'0 0.2
2017-Dec-02 08:00N 51°43' E 003°41'3 5.7
2017-Dec-02 07:28N 51°40' E 003°42'4 9.0
2017-Dec-02 07:01N 51°41' E 003°36'5 9.7
2017-Dec-02 06:31N 51°45' E 003°33'1 2.9
2017-Dec-02 05:59N 51°46' E 003°31'0 0.3
2017-Dec-02 05:28N 51°46' E 003°31'4 7.6
2017-Dec-02 05:00N 51°42' E 003°33'4 8.5
2017-Dec-02 04:30N 51°42' E 003°40'1 2.7
2017-Dec-02 03:59N 51°43' E 003°41'2 3.4
2017-Dec-02 03:28N 51°41' E 003°41'1 2.7
2017-Dec-02 03:00N 51°40' E 003°39'4 8.6
2017-Dec-02 02:30N 51°42' E 003°33'4 7.2
2017-Dec-02 02:00N 51°45' E 003°31'0 0.4
2017-Dec-02 01:30N 51°46' E 003°31'0 0.5
2017-Dec-02 01:00N 51°46' E 003°31'4 8.6
2017-Dec-02 00:31N 51°42' E 003°33'4 8.2
2017-Dec-02 00:00N 51°42' E 003°40'1 2.1
2017-Dec-01 23:29N 51°43' E 003°41'0 0.3
2017-Dec-01 22:53N 51°43' E 003°41'0 0.0
2017-Dec-01 22:30N 51°43' E 003°41'3 5.6
2017-Dec-01 21:59N 51°40' E 003°42'3 5.6
2017-Dec-01 21:30N 51°40' E 003°37'5 8.7
2017-Dec-01 20:58N 51°44' E 003°34'2 4.8
2017-Dec-01 20:30N 51°46' E 003°31'0 0.5
2017-Dec-01 19:59N 51°45' E 003°31'3 6.4
2017-Dec-01 19:29N 51°43' E 003°33'5 9.5
2017-Dec-01 19:00N 51°41' E 003°40'2 4.6
2017-Dec-01 18:30N 51°43' E 003°41'1 1.5
2017-Dec-01 18:00N 51°42' E 003°40'2 4.7
2017-Dec-01 17:29N 51°40' E 003°42'2 3.7
2017-Dec-01 17:00N 51°40' E 003°39'4 9.0
2017-Dec-01 16:30N 51°42' E 003°33'4 7.2
2017-Dec-01 16:00N 51°46' E 003°31'0 0.7
2017-Dec-01 15:30N 51°46' E 003°30'3 4.8
2017-Dec-01 14:59N 51°44' E 003°33'510.6
2017-Dec-01 14:30N 51°41' E 003°39'2 3.3
2017-Dec-01 13:49N 51°43' E 003°41'0 0.4
2017-Dec-01 13:23N 51°43' E 003°41'2 5.3
2017-Dec-01 12:56N 51°41' E 003°41'2 4.0
2017-Dec-01 12:30N 51°40' E 003°38'5 9.0
2017-Dec-01 12:00N 51°43' E 003°32'3 6.1
2017-Dec-01 11:30N 51°46' E 003°31'0 0.6
2017-Dec-01 11:00N 51°46' E 003°30'1 1.1
2017-Dec-01 10:29N 51°46' E 003°31'5 9.9
2017-Dec-01 09:57N 51°41' E 003°35'4 8.3
2017-Dec-01 09:30N 51°43' E 003°41'0 0.1
2017-Dec-01 08:58N 51°43' E 003°41'3 5.0
2017-Dec-01 08:27N 51°40' E 003°42'2 5.2
2017-Dec-01 08:00N 51°40' E 003°38'5 9.3
2017-Dec-01 07:30N 51°44' E 003°33'2 4.6
2017-Dec-01 06:59N 51°46' E 003°31'0 0.6
2017-Dec-01 06:30N 51°46' E 003°30'2 4.4
2017-Dec-01 06:00N 51°44' E 003°33'  
Track history (hours):
 
Tides and Currents Weather Stations Pressure Air Temp Water Temp Dewpoint Dewpoint Depression Visibility Wind Speed Wind Dir Waves Ship Positions

Causeway

Last reported at 2017-Dec-11 05:30 UTC. Time now 2017-Dec-11 05:56 UTC.
Position N 52°52' E 004°33'.

Length 91 m; draft 6.8 m.

Type: Dredging. MMSI: 210523000.

Date/timePositionNaut miles runAvg speedWind from/ knotsBaromVisibWave heightAir tempDewpointWater temp
2017-Dec-11 05:30N 52°52' E 004°33'1 1.5
2017-Dec-11 05:00N 52°51' E 004°33'4 8.4
2017-Dec-11 04:31N 52°50' E 004°40'3 5.7
2017-Dec-11 04:00N 52°51' E 004°35'2 3.8
2017-Dec-11 03:30N 52°52' E 004°33'1 1.4
2017-Dec-11 03:00N 52°52' E 004°33'4 8.3
2017-Dec-11 02:30N 52°50' E 004°40'2 4.3
2017-Dec-11 02:00N 52°50' E 004°36'2 4.0
2017-Dec-11 01:30N 52°51' E 004°33'0 0.6
2017-Dec-11 01:00N 52°51' E 004°33'2 3.8
2017-Dec-11 00:30N 52°50' E 004°36'2 4.5
2017-Dec-11 00:01N 52°50' E 004°40'4 8.0
2017-Dec-10 23:30N 52°51' E 004°33'1 1.6
2017-Dec-10 23:00N 52°52' E 004°33'1 1.4
2017-Dec-10 22:31N 52°52' E 004°33'5 9.1
2017-Dec-10 22:01N 52°50' E 004°40'4 8.4
2017-Dec-10 21:31N 52°51' E 004°33'1 1.8
2017-Dec-10 21:00N 52°52' E 004°33'1 2.1
2017-Dec-10 20:30N 52°52' E 004°35'3 6.6
2017-Dec-10 20:01N 52°50' E 004°40'4 7.9
2017-Dec-10 19:30N 52°51' E 004°33'1 1.5
2017-Dec-10 19:00N 52°52' E 004°33'2 3.2
2017-Dec-10 18:30N 52°51' E 004°36'2 3.3
2017-Dec-10 18:00N 52°51' E 004°38'3 6.5
2017-Dec-10 17:30N 52°52' E 004°33'1 1.6
2017-Dec-10 17:00N 52°51' E 004°33'2 4.1
2017-Dec-10 16:30N 52°51' E 004°36'1 2.4
2017-Dec-10 16:00N 52°51' E 004°38'3 6.2
2017-Dec-10 15:30N 52°52' E 004°33'1 1.5
2017-Dec-10 15:01N 52°51' E 004°33'2 4.1
2017-Dec-10 14:30N 52°51' E 004°37'2 3.3
2017-Dec-10 14:00N 52°50' E 004°39'4 7.5
2017-Dec-10 13:30N 52°52' E 004°33'0 0.2
2017-Dec-10 13:00N 52°52' E 004°33'1 3.0
2017-Dec-10 12:30N 52°51' E 004°35'3 5.9
2017-Dec-10 12:01N 52°50' E 004°40'4 8.1
2017-Dec-10 11:30N 52°51' E 004°33'1 2.1
2017-Dec-10 11:00N 52°52' E 004°33'2 3.6
2017-Dec-10 10:30N 52°51' E 004°36'3 5.3
2017-Dec-10 10:00N 52°50' E 004°40'3 5.2
2017-Dec-10 09:30N 52°52' E 004°37'2 4.0
2017-Dec-10 09:00N 52°52' E 004°33'1 2.2
2017-Dec-10 08:31N 52°51' E 004°33'1 1.0
2017-Dec-10 08:00N 52°51' E 004°33'1 1.4
2017-Dec-10 07:31N 52°52' E 004°34'4 7.9
2017-Dec-10 07:01N 52°50' E 004°40'3 5.8
2017-Dec-10 06:30N 52°51' E 004°36'1 2.9
2017-Dec-10 06:00N 52°51' E 004°33'0 0.6
2017-Dec-10 05:30N 52°51' E 004°33'1 2.2
2017-Dec-10 05:00N 52°50' E 004°33'510.9
2017-Dec-10 04:30N 52°45' E 004°32'510.8
2017-Dec-10 04:00N 52°39' E 004°30'510.4
2017-Dec-10 03:30N 52°34' E 004°29'510.4
2017-Dec-10 03:00N 52°29' E 004°26'510.5
2017-Dec-10 02:30N 52°24' E 004°22'510.5
2017-Dec-10 02:00N 52°20' E 004°18'510.6
2017-Dec-10 01:30N 52°15' E 004°14'510.7
2017-Dec-10 01:00N 52°11' E 004°09'510.7
2017-Dec-10 00:30N 52°07' E 004°04'4 7.2
2017-Dec-10 00:00N 52°03' E 004°01'510.0
2017-Dec-09 23:31N 51°59' E 004°05'1 2.3
2017-Dec-09 23:01N 51°58' E 004°05'0 0.2
2017-Dec-09 22:30N 51°58' E 004°05'3 5.3
2017-Dec-09 22:00N 51°60' E 004°02'4 8.1
2017-Dec-09 21:31N 52°04' E 004°01'5 9.6
2017-Dec-09 21:00N 51°59' E 004°04'2 3.8
2017-Dec-09 20:31N 51°58' E 004°05'0 0.2
2017-Dec-09 20:00N 51°58' E 004°05'3 5.6
2017-Dec-09 19:30N 51°60' E 004°02'4 7.5
2017-Dec-09 19:00N 52°03' E 004°01'5 9.8
2017-Dec-09 18:30N 51°59' E 004°04'1 2.4
2017-Dec-09 18:00N 51°58' E 004°05'0 0.4
2017-Dec-09 17:31N 51°58' E 004°05'4 8.0
2017-Dec-09 17:00N 52°01' E 004°01'2 4.2
2017-Dec-09 16:30N 52°03' E 004°02'5 9.2
2017-Dec-09 16:00N 51°59' E 004°05'1 2.3
2017-Dec-09 15:31N 51°58' E 004°05'0 0.4
2017-Dec-09 15:00N 51°58' E 004°05'5 9.8
2017-Dec-09 14:30N 52°01' E 003°60'2 3.4
2017-Dec-09 14:00N 52°03' E 004°01'4 8.1
2017-Dec-09 13:30N 51°59' E 004°04'2 3.9
2017-Dec-09 13:00N 51°57' E 004°05'0 0.2
2017-Dec-09 12:30N 51°57' E 004°05'2 3.5
2017-Dec-09 12:00N 51°56' E 004°03'0 0.0
2017-Dec-09 11:30N 51°56' E 004°03'0 0.0
2017-Dec-09 11:00N 51°56' E 004°03'0 0.0
2017-Dec-09 10:30N 51°56' E 004°03'0 0.1
2017-Dec-09 10:00N 51°56' E 004°03'3 6.1
2017-Dec-09 09:30N 51°58' E 004°06'5 9.2
2017-Dec-09 09:00N 51°56' E 004°13'510.5
2017-Dec-09 08:30N 51°54' E 004°20'4 7.4
2017-Dec-09 08:00N 51°54' E 004°26'1 1.0
2017-Dec-09 07:30N 51°53' E 004°27'0 0.5
2017-Dec-09 07:00N 51°53' E 004°27'0 0.1
2017-Dec-09 06:30N 51°53' E 004°27'0 0.3
2017-Dec-09 06:00N 51°53' E 004°27'2 4.3
2017-Dec-09 05:30N 51°54' E 004°23'510.6
2017-Dec-09 05:00N 51°55' E 004°15'611.5
2017-Dec-09 04:30N 51°58' E 004°08'3 6.6
2017-Dec-09 04:00N 51°56' E 004°04'0 0.9
2017-Dec-09 03:30N 51°56' E 004°03'0 0.0
2017-Dec-09 03:00N 51°56' E 004°03'0 0.0
2017-Dec-09 02:30N 51°56' E 004°03'0 0.0
2017-Dec-09 02:00N 51°56' E 004°03'0 0.5
2017-Dec-09 01:30N 51°56' E 004°03'2 4.6
2017-Dec-09 01:00N 51°58' E 004°02'1 2.5
2017-Dec-09 00:30N 51°59' E 003°60'0 0.0
2017-Dec-09 00:00N 51°59' E 003°60'0 0.0
2017-Dec-08 23:30N 51°59' E 003°60'0 0.0
2017-Dec-08 23:00N 51°59' E 003°60'0 0.0
2017-Dec-08 22:30N 51°59' E 003°60'0 0.0
2017-Dec-08 22:00N 51°59' E 003°60'0 0.0
2017-Dec-08 21:30N 51°59' E 003°60'0 0.0
2017-Dec-08 21:00N 51°59' E 003°60'0 0.2
2017-Dec-08 20:30N 51°59' E 004°00'3 6.4
2017-Dec-08 20:00N 51°58' E 004°05'3 6.1
2017-Dec-08 19:30N 51°57' E 004°10'4 8.1
2017-Dec-08 19:00N 51°55' E 004°15'4 8.1
2017-Dec-08 18:30N 51°54' E 004°21'3 6.5
2017-Dec-08 18:00N 51°53' E 004°27'0 0.2
2017-Dec-08 17:30N 51°53' E 004°27'0 0.5
2017-Dec-08 17:00N 51°53' E 004°27'0 0.0
2017-Dec-08 16:30N 51°53' E 004°27'0 0.9
2017-Dec-08 16:00N 51°54' E 004°26'5 9.5
2017-Dec-08 15:30N 51°54' E 004°19'611.4
2017-Dec-08 15:00N 51°57' E 004°11'510.4
2017-Dec-08 14:31N 51°59' E 004°03'5 9.3
2017-Dec-08 14:00N 52°02' E 003°57'2 5.0
2017-Dec-08 13:30N 52°03' E 004°01'2 3.4
2017-Dec-08 13:00N 52°02' E 004°01'4 7.2
2017-Dec-08 12:30N 51°59' E 004°05'611.8
2017-Dec-08 12:00N 51°56' E 004°13'510.4
2017-Dec-08 11:30N 51°54' E 004°21'3 6.8
2017-Dec-08 11:00N 51°54' E 004°26'0 0.1
2017-Dec-08 10:30N 51°54' E 004°26'0 0.1
2017-Dec-08 10:00N 51°54' E 004°26'0 0.3
2017-Dec-08 09:30N 51°54' E 004°26'1 1.3
2017-Dec-08 09:00N 51°54' E 004°25'0 0.0
2017-Dec-08 08:30N 51°54' E 004°25'4 8.0
2017-Dec-08 08:00N 51°54' E 004°19'612.4
2017-Dec-08 07:30N 51°57' E 004°10'611.9
2017-Dec-08 07:00N 51°60' E 004°02'4 8.1
2017-Dec-08 06:30N 52°04' E 004°00'2 3.5
2017-Dec-08 06:00N 52°02' E 004°02'4 8.1
2017-Dec-08 05:30N 51°59' E 004°05'1 1.8
2017-Dec-08 05:00N 51°58' E 004°05'0 0.4
2017-Dec-08 04:30N 51°58' E 004°05'4 8.7
2017-Dec-08 04:00N 52°01' E 004°01'3 6.1
2017-Dec-08 03:30N 52°04' E 004°01'2 3.1
2017-Dec-08 03:00N 52°02' E 004°01'3 6.9
2017-Dec-08 02:30N 51°59' E 004°03'2 4.2
2017-Dec-08 02:00N 51°58' E 004°05'1 1.8
2017-Dec-08 01:31N 51°57' E 004°05'2 4.2
2017-Dec-08 01:00N 51°59' E 004°04'510.2
2017-Dec-08 00:31N 52°03' E 004°00'2 3.9
2017-Dec-08 00:00N 52°02' E 004°01'4 7.9
2017-Dec-07 23:30N 51°58' E 004°05'1 2.0
2017-Dec-07 23:00N 51°57' E 004°05'0 0.7
2017-Dec-07 22:30N 51°58' E 004°05'5 9.3
2017-Dec-07 22:00N 52°01' E 004°00'2 3.8
2017-Dec-07 21:30N 52°03' E 004°02'4 8.7
2017-Dec-07 21:00N 51°59' E 004°04'1 2.9
2017-Dec-07 20:30N 51°58' E 004°05'1 1.4
2017-Dec-07 20:00N 51°58' E 004°05'510.8
2017-Dec-07 19:30N 52°03' E 004°01'3 5.6
2017-Dec-07 19:00N 52°00' E 004°02'4 7.3
2017-Dec-07 18:31N 51°57' E 004°05'1 1.7
2017-Dec-07 18:00N 51°58' E 004°05'3 6.8
2017-Dec-07 17:30N 52°00' E 004°02'3 6.1
2017-Dec-07 17:00N 52°03' E 004°01'4 7.8
2017-Dec-07 16:30N 51°60' E 004°02'3 5.9
2017-Dec-07 16:00N 51°57' E 004°05'0 0.1
2017-Dec-07 15:31N 51°57' E 004°05'0 0.3
2017-Dec-07 15:01N 51°57' E 004°05'0 0.2
2017-Dec-07 14:30N 51°57' E 004°05'1 1.0
2017-Dec-07 14:00N 51°58' E 004°04'0 0.8
2017-Dec-07 13:30N 51°58' E 004°04'2 3.7
2017-Dec-07 13:00N 51°59' E 004°02'4 8.3
2017-Dec-07 12:30N 52°03' E 004°01'3 6.9
2017-Dec-07 12:00N 52°00' E 004°02'3 5.5
2017-Dec-07 11:30N 51°58' E 004°06'0 0.3
2017-Dec-07 11:00N 51°58' E 004°05'4 7.4
2017-Dec-07 10:30N 52°01' E 004°00'3 5.1
2017-Dec-07 10:00N 52°03' E 004°01'510.4
2017-Dec-07 09:30N 51°59' E 004°06'0 0.4
2017-Dec-07 09:00N 51°58' E 004°06'1 2.9
2017-Dec-07 08:30N 51°59' E 004°04'4 8.4
2017-Dec-07 08:00N 52°03' E 004°01'3 5.5
2017-Dec-07 07:30N 52°00' E 004°02'3 5.7
2017-Dec-07 07:00N 51°58' E 004°06'0 0.8
2017-Dec-07 06:30N 51°59' E 004°05'4 8.8
2017-Dec-07 06:00N 52°02' E 004°01'1 2.8
2017-Dec-07 05:30N 52°01' E 004°01'4 7.2
2017-Dec-07 05:00N 51°58' E 004°06'0 0.7
2017-Dec-07 04:31N 51°58' E 004°05'2 4.3
2017-Dec-07 04:00N 51°59' E 004°02'4 8.8
2017-Dec-07 03:30N 52°04' E 004°01'3 6.5
2017-Dec-07 03:00N 52°00' E 004°02'3 6.1
2017-Dec-07 02:31N 51°59' E 004°06'0 0.1
2017-Dec-07 02:00N 51°58' E 004°06'3 6.9
2017-Dec-07 01:30N 52°01' E 004°01'2 4.4
2017-Dec-07 01:00N 52°03' E 004°01'510.1
2017-Dec-07 00:30N 51°58' E 004°05'1 1.1
2017-Dec-07 00:01N 51°58' E 004°06'1 1.5
2017-Dec-06 23:30N 51°59' E 004°05'5 9.7
2017-Dec-06 23:00N 52°03' E 004°01'3 6.3
2017-Dec-06 22:30N 51°60' E 004°02'2 4.7
2017-Dec-06 22:01N 51°58' E 004°06'0 0.3
2017-Dec-06 21:30N 51°59' E 004°05'5 9.7
2017-Dec-06 21:00N 52°03' E 004°01'  
2017-Dec-04 10:30N 51°56' E 004°03'0 0.0
2017-Dec-04 10:01N 51°56' E 004°03'0 0.0
2017-Dec-04 09:30N 51°56' E 004°03'0 0.0
2017-Dec-04 09:00N 51°56' E 004°03'0 0.0
2017-Dec-04 08:30N 51°56' E 004°03'0 0.0
2017-Dec-04 08:00N 51°56' E 004°03'0 0.0
2017-Dec-04 07:30N 51°56' E 004°03'2 4.1
2017-Dec-04 07:00N 51°58' E 004°05'611.1
2017-Dec-04 06:30N 52°03' E 004°01'2 5.0
2017-Dec-04 06:00N 52°00' E 004°02'3 6.0
2017-Dec-04 05:30N 51°58' E 004°06'0 0.3
2017-Dec-04 05:00N 51°58' E 004°06'4 7.0
2017-Dec-04 04:30N 52°01' E 004°02'2 3.5
2017-Dec-04 04:00N 52°02' E 004°02'5 9.6
2017-Dec-04 03:30N 51°58' E 004°05'0 0.2
2017-Dec-04 03:00N 51°58' E 004°05'1 3.0
2017-Dec-04 02:30N 51°59' E 004°03'510.2
2017-Dec-04 02:01N 52°04' E 004°01'5 9.8
2017-Dec-04 01:30N 51°59' E 004°04'1 2.8
2017-Dec-04 01:00N 51°58' E 004°06'0 0.2
2017-Dec-04 00:30N 51°58' E 004°06'5 9.2
2017-Dec-04 00:01N 52°02' E 004°01'1 2.9
2017-Dec-03 23:31N 52°01' E 004°02'3 6.7
2017-Dec-03 23:01N 51°58' E 004°06'0 0.8
2017-Dec-03 22:31N 51°58' E 004°06'3 6.5
2017-Dec-03 22:01N 52°00' E 004°02'2 3.2
2017-Dec-03 21:31N 52°02' E 004°02'4 8.6
2017-Dec-03 21:01N 51°58' E 004°06'0 0.2
2017-Dec-03 20:31N 51°58' E 004°05'4 7.4
2017-Dec-03 20:01N 52°01' E 004°01'0 0.5
2017-Dec-03 19:30N 52°01' E 004°02'4 7.5
2017-Dec-03 19:01N 51°58' E 004°05'0 0.1
2017-Dec-03 18:31N 51°58' E 004°05'4 7.4
2017-Dec-03 18:01N 52°01' E 004°01'0 0.2
2017-Dec-03 17:31N 52°01' E 004°02'4 7.3
2017-Dec-03 17:01N 51°58' E 004°06'0 0.5
2017-Dec-03 16:31N 51°58' E 004°06'0 0.1
2017-Dec-03 16:01N 51°58' E 004°06'4 8.3
2017-Dec-03 15:31N 52°02' E 004°01'1 2.2
2017-Dec-03 15:00N 52°01' E 004°02'3 6.8
2017-Dec-03 14:31N 51°58' E 004°06'0 0.7
2017-Dec-03 14:00N 51°58' E 004°05'0 0.1
2017-Dec-03 13:31N 51°58' E 004°05'5 9.1
2017-Dec-03 13:00N 52°02' E 004°01'2 3.4
2017-Dec-03 12:31N 52°01' E 004°02'2 4.1
2017-Dec-03 12:01N 51°59' E 004°04'1 1.0
2017-Dec-03 11:31N 51°59' E 004°03'2 3.8
2017-Dec-03 11:01N 52°01' E 004°02'1 2.4
2017-Dec-03 10:30N 52°02' E 004°02'3 6.3
2017-Dec-03 10:01N 51°59' E 004°03'0 0.4
2017-Dec-03 09:31N 51°59' E 004°03'2 4.5
2017-Dec-03 09:00N 52°01' E 004°02'0 0.5
2017-Dec-03 08:31N 52°01' E 004°01'3 6.0
2017-Dec-03 08:01N 51°59' E 004°04'1 1.5
2017-Dec-03 07:30N 51°59' E 004°03'1 2.9
2017-Dec-03 07:01N 51°60' E 004°01'2 4.9
2017-Dec-03 06:31N 52°02' E 004°02'4 7.8
2017-Dec-03 06:01N 51°59' E 004°04'1 1.5
2017-Dec-03 05:31N 51°59' E 004°03'3 5.1
2017-Dec-03 05:01N 52°02' E 004°01'0 0.5
2017-Dec-03 04:31N 52°02' E 004°02'3 6.0
2017-Dec-03 04:00N 51°59' E 004°04'0 0.3
2017-Dec-03 03:31N 51°59' E 004°04'1 1.5
2017-Dec-03 03:01N 51°59' E 004°03'5 9.2
2017-Dec-03 02:31N 52°04' E 004°01'5 9.0
2017-Dec-03 02:01N 51°59' E 004°03'3 5.2
2017-Dec-03 01:31N 51°58' E 004°07'0 0.1
2017-Dec-03 01:01N 51°58' E 004°07'1 2.7
2017-Dec-03 00:31N 51°57' E 004°09'0 0.5
2017-Dec-03 00:01N 51°58' E 004°08'5 9.7
2017-Dec-02 23:31N 52°00' E 004°02'4 8.8
2017-Dec-02 23:01N 52°04' E 004°01'1 1.5
2017-Dec-02 22:30N 52°04' E 003°60'1 1.3
2017-Dec-02 22:01N 52°04' E 004°00'0 1.0
2017-Dec-02 21:31N 52°04' E 003°60'510.5
2017-Dec-02 21:01N 51°59' E 003°56'510.6
2017-Dec-02 20:31N 51°56' E 003°50'610.5
2017-Dec-02 19:56N 51°52' E 003°42'610.4
2017-Dec-02 19:24N 51°48' E 003°37'510.5
2017-Dec-02 18:56N 51°44' E 003°33'5 9.7
2017-Dec-02 18:26N 51°40' E 003°38'2 3.9
2017-Dec-02 17:59N 51°41' E 003°41'2 3.4
2017-Dec-02 17:30N 51°43' E 003°41'0 0.0
2017-Dec-02 17:00N 51°43' E 003°41'3 6.0
2017-Dec-02 16:30N 51°40' E 003°42'3 6.8
2017-Dec-02 16:00N 51°40' E 003°37'4 7.8
2017-Dec-02 15:30N 51°43' E 003°32'3 5.6
2017-Dec-02 15:01N 51°46' E 003°31'0 0.3
2017-Dec-02 14:29N 51°46' E 003°31'2 3.2
2017-Dec-02 14:01N 51°45' E 003°33'6 9.9
2017-Dec-02 13:27N 51°41' E 003°38'2 1.6
2017-Dec-02 12:14N 51°42' E 003°40'3 7.4
2017-Dec-02 11:53N 51°40' E 003°42'410.7
2017-Dec-02 11:30N 51°41' E 003°36'4 8.3
2017-Dec-02 10:57N 51°45' E 003°34'2 4.5
2017-Dec-02 10:30N 51°45' E 003°31'0 0.6
2017-Dec-02 10:00N 51°46' E 003°31'3 5.1
2017-Dec-02 09:30N 51°43' E 003°33'5 9.6
2017-Dec-02 08:58N 51°40' E 003°39'3 5.8
2017-Dec-02 08:30N 51°43' E 003°41'0 0.2
2017-Dec-02 08:00N 51°43' E 003°41'3 5.7
2017-Dec-02 07:28N 51°40' E 003°42'4 9.0
2017-Dec-02 07:01N 51°41' E 003°36'5 9.7
2017-Dec-02 06:31N 51°45' E 003°33'1 2.9
2017-Dec-02 05:59N 51°46' E 003°31'0 0.3
2017-Dec-02 05:28N 51°46' E 003°31'4 7.6
2017-Dec-02 05:00N 51°42' E 003°33'4 8.5
2017-Dec-02 04:30N 51°42' E 003°40'1 2.7
2017-Dec-02 03:59N 51°43' E 003°41'2 3.4
2017-Dec-02 03:28N 51°41' E 003°41'1 2.7
2017-Dec-02 03:00N 51°40' E 003°39'4 8.6
2017-Dec-02 02:30N 51°42' E 003°33'4 7.2
2017-Dec-02 02:00N 51°45' E 003°31'0 0.4
2017-Dec-02 01:30N 51°46' E 003°31'0 0.5
2017-Dec-02 01:00N 51°46' E 003°31'4 8.6
2017-Dec-02 00:31N 51°42' E 003°33'4 8.2
2017-Dec-02 00:00N 51°42' E 003°40'1 2.1
2017-Dec-01 23:29N 51°43' E 003°41'0 0.3
2017-Dec-01 22:53N 51°43' E 003°41'0 0.0
2017-Dec-01 22:30N 51°43' E 003°41'3 5.6
2017-Dec-01 21:59N 51°40' E 003°42'3 5.6
2017-Dec-01 21:30N 51°40' E 003°37'5 8.7
2017-Dec-01 20:58N 51°44' E 003°34'2 4.8
2017-Dec-01 20:30N 51°46' E 003°31'0 0.5
2017-Dec-01 19:59N 51°45' E 003°31'3 6.4
2017-Dec-01 19:29N 51°43' E 003°33'5 9.5
2017-Dec-01 19:00N 51°41' E 003°40'2 4.6
2017-Dec-01 18:30N 51°43' E 003°41'1 1.5
2017-Dec-01 18:00N 51°42' E 003°40'2 4.7
2017-Dec-01 17:29N 51°40' E 003°42'2 3.7
2017-Dec-01 17:00N 51°40' E 003°39'4 9.0
2017-Dec-01 16:30N 51°42' E 003°33'4 7.2
2017-Dec-01 16:00N 51°46' E 003°31'0 0.7
2017-Dec-01 15:30N 51°46' E 003°30'3 4.8
2017-Dec-01 14:59N 51°44' E 003°33'510.6
2017-Dec-01 14:30N 51°41' E 003°39'2 3.3
2017-Dec-01 13:49N 51°43' E 003°41'0 0.4
2017-Dec-01 13:23N 51°43' E 003°41'2 5.3
2017-Dec-01 12:56N 51°41' E 003°41'2 4.0
2017-Dec-01 12:30N 51°40' E 003°38'5 9.0
2017-Dec-01 12:00N 51°43' E 003°32'3 6.1
2017-Dec-01 11:30N 51°46' E 003°31'0 0.6
2017-Dec-01 11:00N 51°46' E 003°30'1 1.1
2017-Dec-01 10:29N 51°46' E 003°31'5 9.9
2017-Dec-01 09:57N 51°41' E 003°35'4 8.3
2017-Dec-01 09:30N 51°43' E 003°41'0 0.1
2017-Dec-01 08:58N 51°43' E 003°41'3 5.0
2017-Dec-01 08:27N 51°40' E 003°42'2 5.2
2017-Dec-01 08:00N 51°40' E 003°38'5 9.3
2017-Dec-01 07:30N 51°44' E 003°33'2 4.6
2017-Dec-01 06:59N 51°46' E 003°31'0 0.6
2017-Dec-01 06:30N 51°46' E 003°30'2 4.4
2017-Dec-01 06:00N 51°44' E 003°33'  

Dump ship's entire track history